Time;durP1;ratioP1;P1;durP2;ratioP2;P2;SDS_P1;SDS_P2;PMS_P1;PMS_P2;Temp;Humidity;BMP_temperature;BMP_pressure;BME280_temperature;BME280_humidity;BME280_pressure;Samples;Min_cycle;Max_cycle;Signal;HPM_P1;HPM_P2
2021/12/31 00:00:01;;;;;;;2.00;1.90;;;;;;;12.32;100.00;101296.84;5049261;28;20258;-80
2021/12/31 00:02:26;;;;;;;2.27;2.07;;;;;;;12.31;100.00;101294.25;5052830;28;20190;-78
2021/12/31 00:04:51;;;;;;;2.93;2.60;;;;;;;12.29;100.00;101289.06;5070221;28;20281;-79
2021/12/31 00:07:17;;;;;;;2.80;2.60;;;;;;;12.30;100.00;101295.09;5053654;28;20217;-79
2021/12/31 00:09:43;;;;;;;3.57;2.90;;;;;;;12.32;100.00;101298.53;5051511;28;20189;-80
2021/12/31 00:12:09;;;;;;;4.87;3.43;;;;;;;12.31;100.00;101292.53;5043282;28;20264;-78
2021/12/31 00:14:35;;;;;;;3.43;3.13;;;;;;;12.34;100.00;101290.03;5043791;28;20252;-78
2021/12/31 00:17:01;;;;;;;3.90;3.50;;;;;;;12.36;100.00;101287.50;5037507;28;20189;-78
2021/12/31 00:19:30;;;;;;;5.23;4.00;;;;;;;12.35;100.00;101290.91;5045579;28;20200;-79
2021/12/31 00:21:56;;;;;;;3.90;3.60;;;;;;;12.35;100.00;101286.63;5036547;28;20232;-79
2021/12/31 00:24:24;;;;;;;4.43;3.77;;;;;;;12.43;100.00;101284.19;5051592;28;20239;-78
2021/12/31 00:26:49;;;;;;;3.97;3.67;;;;;;;12.37;100.00;101287.53;5048980;28;20190;-79
2021/12/31 00:29:15;;;;;;;4.73;4.33;;;;;;;12.38;100.00;101301.22;5058945;28;20185;-80
2021/12/31 00:31:40;;;;;;;5.50;4.20;;;;;;;12.36;100.00;101293.47;5045539;28;20448;-80
2021/12/31 00:34:05;;;;;;;5.87;5.27;;;;;;;12.40;100.00;101300.41;5043331;28;20601;-78
2021/12/31 00:36:45;;;;;;;6.03;5.53;;;;;;;12.38;100.00;101296.09;5046881;28;20202;-79
2021/12/31 00:39:11;;;;;;;7.00;6.30;;;;;;;12.38;100.00;101302.09;5048480;28;20204;-79
2021/12/31 00:41:36;;;;;;;7.57;6.87;;;;;;;12.39;100.00;101302.97;5049070;28;20214;-79
2021/12/31 00:44:02;;;;;;;7.73;6.93;;;;;;;12.38;100.00;101303.78;5049872;28;20200;-79
2021/12/31 00:46:30;;;;;;;9.33;8.07;;;;;;;12.36;100.00;101302.91;5047303;28;20217;-79
2021/12/31 00:48:55;;;;;;;11.33;8.33;;;;;;;12.39;100.00;101301.25;5063421;28;20215;-79
2021/12/31 00:51:20;;;;;;;9.33;8.20;;;;;;;12.39;100.00;101303.81;5048870;28;20502;-79
2021/12/31 00:53:46;;;;;;;9.77;8.87;;;;;;;12.38;100.00;101304.66;5051636;28;20197;-79
2021/12/31 00:56:11;;;;;;;9.87;8.87;;;;;;;12.39;100.00;101308.97;5031044;28;20236;-79
2021/12/31 00:58:36;;;;;;;9.10;8.13;;;;;;;12.39;100.00;101310.69;5051951;28;20201;-78
2021/12/31 01:01:02;;;;;;;9.40;8.40;;;;;;;12.40;100.00;101308.13;5048085;28;20574;-77
2021/12/31 01:03:27;;;;;;;9.23;7.93;;;;;;;12.41;100.00;101311.56;5064013;28;20887;-78
2021/12/31 01:05:52;;;;;;;9.73;8.33;;;;;;;12.42;100.00;101305.59;5051702;28;20194;-78
2021/12/31 01:08:18;;;;;;;9.40;8.40;;;;;;;12.40;100.00;101307.28;5054031;28;20201;-78
2021/12/31 01:10:43;;;;;;;11.30;9.13;;;;;;;12.40;100.00;101308.13;5047606;28;20239;-78
2021/12/31 01:13:13;;;;;;;11.17;9.47;;;;;;;12.42;100.00;101314.16;5045827;28;20177;-78
2021/12/31 01:15:43;;;;;;;14.77;12.03;;;;;;;12.40;100.00;101315.81;5043901;28;20704;-78
2021/12/31 01:20:37;;;;;;;16.03;11.73;;;;;;;12.40;100.00;101318.38;5045175;28;20221;-78
2021/12/31 01:23:04;;;;;;;14.70;13.20;;;;;;;12.41;100.00;101327.84;5044743;28;20194;-77
2021/12/31 01:25:30;;;;;;;15.57;11.77;;;;;;;12.42;100.00;101321.00;5041381;28;20194;-77
2021/12/31 01:27:55;;;;;;;17.20;12.57;;;;;;;12.42;100.00;101321.88;5044901;28;20221;-78
2021/12/31 01:30:21;;;;;;;14.73;11.93;;;;;;;12.42;100.00;101324.44;5048534;28;20210;-78
2021/12/31 01:32:46;;;;;;;12.53;11.10;;;;;;;12.46;100.00;101333.06;5062124;28;20292;-78
2021/12/31 01:35:13;;;;;;;16.10;12.13;;;;;;;12.46;100.00;101326.25;5047768;28;20883;-77
2021/12/31 01:37:39;;;;;;;14.30;11.47;;;;;;;12.46;100.00;101323.66;5048668;28;20200;-78
2021/12/31 01:40:05;;;;;;;16.20;12.57;;;;;;;12.45;100.00;101319.34;5046194;28;20193;-77
2021/12/31 01:42:33;;;;;;;13.17;11.80;;;;;;;12.42;99.90;101314.16;5047981;28;20594;-77
2021/12/31 01:45:15;;;;;;;13.07;11.40;;;;;;;12.45;100.00;101311.63;5047078;28;20204;-77
2021/12/31 01:50:19;;;;;;;20.37;12.03;;;;;;;12.47;99.37;101315.13;5045856;28;20269;-77
2021/12/31 01:52:44;;;;;;;17.50;11.97;;;;;;;12.47;99.35;101325.38;5053732;28;20601;-77
2021/12/31 01:55:12;;;;;;;18.87;13.17;;;;;;;12.47;98.89;101322.81;5053335;28;20206;-78
2021/12/31 01:57:42;;;;;;;21.93;13.90;;;;;;;12.45;99.21;101328.78;5052706;28;20193;-78
2021/12/31 02:00:09;;;;;;;17.40;12.90;;;;;;;12.45;99.20;101327.03;5054008;28;20217;-77
2021/12/31 02:02:35;;;;;;;14.50;11.63;;;;;;;12.45;98.73;101339.88;5052615;28;20201;-77
2021/12/31 02:05:03;;;;;;;16.43;11.83;;;;;;;12.44;98.69;101343.31;5047950;28;20193;-78
2021/12/31 02:07:29;;;;;;;15.50;12.20;;;;;;;12.48;98.43;101345.09;5048106;28;20218;-78
2021/12/31 02:09:54;;;;;;;18.10;11.17;;;;;;;12.46;98.27;101340.75;5050027;28;20214;-77
2021/12/31 02:12:22;;;;;;;15.40;10.97;;;;;;;12.47;97.76;101342.50;5049674;28;20185;-78
2021/12/31 02:14:50;;;;;;;15.93;9.60;;;;;;;12.50;97.47;101353.69;5030398;28;20219;-78
2021/12/31 02:17:15;;;;;;;16.47;10.40;;;;;;;12.46;97.56;101349.34;5055091;28;20235;-77
2021/12/31 02:19:43;;;;;;;12.87;9.40;;;;;;;12.47;97.58;101357.91;5068166;23;20273;-68
2021/12/31 02:22:09;;;;;;;12.50;9.87;;;;;;;12.45;97.45;101354.44;5049352;28;20247;-68
2021/12/31 02:24:36;;;;;;;16.70;11.50;;;;;;;12.42;97.62;101362.09;5048050;28;21038;-68
2021/12/31 02:27:02;;;;;;;15.57;9.90;;;;;;;12.41;97.51;101375.78;5047941;28;20398;-68
2021/12/31 02:29:28;;;;;;;17.00;10.37;;;;;;;12.40;97.33;101364.63;5046831;28;20209;-68
2021/12/31 02:31:53;;;;;;;12.70;10.60;;;;;;;12.40;97.13;101371.47;5047608;28;20674;-68
2021/12/31 02:34:20;;;;;;;16.37;9.87;;;;;;;12.41;97.15;101374.09;5048051;28;20186;-68
2021/12/31 02:36:45;;;;;;;13.90;9.93;;;;;;;12.40;97.12;101374.03;5049332;28;20632;-68
2021/12/31 02:39:11;;;;;;;15.77;9.90;;;;;;;12.44;96.88;101369.00;5048621;28;20280;-68
2021/12/31 02:41:36;;;;;;;14.90;10.00;;;;;;;12.46;96.77;101374.16;5046432;28;20211;-68
2021/12/31 02:44:02;;;;;;;13.90;10.43;;;;;;;12.46;96.47;101372.47;5048488;28;20650;-68
2021/12/31 02:46:28;;;;;;;14.60;10.37;;;;;;;12.46;96.17;101363.88;5047920;28;20292;-68
2021/12/31 02:48:57;;;;;;;13.43;10.27;;;;;;;12.47;96.27;101371.63;5047872;28;20220;-68
2021/12/31 02:51:27;;;;;;;12.90;9.87;;;;;;;12.46;96.51;101369.91;5047516;28;20197;-68
2021/12/31 02:53:55;;;;;;;18.83;10.57;;;;;;;12.45;96.59;101364.72;5047973;28;20185;-68
2021/12/31 02:56:21;;;;;;;14.60;10.60;;;;;;;12.47;96.06;101371.63;5047694;28;20209;-68
2021/12/31 02:58:47;;;;;;;11.07;9.60;;;;;;;12.49;95.98;101351.13;5048844;28;20186;-68
2021/12/31 03:01:13;;;;;;;16.10;11.23;;;;;;;12.51;95.99;101368.28;5046419;28;20196;-68
2021/12/31 03:03:40;;;;;;;17.20;11.33;;;;;;;12.52;95.78;101356.28;5046742;28;20197;-68
2021/12/31 03:06:07;;;;;;;17.47;11.07;;;;;;;12.54;95.52;101352.06;5042521;28;20753;-68
2021/12/31 03:08:40;;;;;;;17.33;11.03;;;;;;;12.54;95.10;101341.78;5044676;28;20225;-68
2021/12/31 03:11:08;;;;;;;16.13;11.87;;;;;;;12.56;95.46;101334.97;5047594;28;20210;-68
2021/12/31 03:13:35;;;;;;;16.37;11.63;;;;;;;12.54;95.01;101334.94;5048201;28;20654;-68
2021/12/31 03:16:01;;;;;;;17.93;10.83;;;;;;;12.51;95.20;101336.59;5044597;28;20213;-68
2021/12/31 03:18:28;;;;;;;13.53;11.00;;;;;;;12.52;95.08;101338.31;5041418;28;20170;-68
2021/12/31 03:21:21;;;;;;;14.17;10.90;;;;;;;12.51;95.20;101326.31;5048000;28;20201;-68
2021/12/31 03:23:39;;;;;;;17.57;12.03;;;;;;;12.54;94.95;101334.09;5048516;28;20751;-68
2021/12/31 03:26:04;;;;;;;16.23;11.00;;;;;;;12.52;95.27;101318.63;5034223;28;20210;-68
2021/12/31 03:28:30;;;;;;;18.17;11.87;;;;;;;12.50;95.17;101324.59;5034610;28;20213;-68
2021/12/31 03:30:55;;;;;;;15.20;11.87;;;;;;;12.51;94.84;101318.59;5052901;28;20194;-68
2021/12/31 03:33:21;;;;;;;13.27;11.90;;;;;;;12.50;94.83;101319.44;5040483;28;20187;-68
2021/12/31 03:35:47;;;;;;;16.77;12.60;;;;;;;12.50;94.91;101316.88;5032724;28;20225;-68
2021/12/31 03:38:12;;;;;;;13.27;11.37;;;;;;;12.54;94.95;101316.09;5032926;28;20660;-68
2021/12/31 03:40:39;;;;;;;16.27;12.13;;;;;;;12.54;94.75;101332.34;5032774;28;20186;-68
2021/12/31 03:43:04;;;;;;;17.77;12.07;;;;;;;12.54;94.31;101324.66;5032535;28;20190;-68
2021/12/31 03:45:30;;;;;;;16.57;11.80;;;;;;;12.53;94.56;101327.22;5032560;28;20317;-68
2021/12/31 03:47:55;;;;;;;18.00;11.27;;;;;;;12.50;94.69;101332.28;5014496;28;20207;-68
2021/12/31 03:50:20;;;;;;;17.57;11.73;;;;;;;12.51;94.80;101334.91;5032656;28;20740;-68
2021/12/31 03:52:46;;;;;;;15.07;11.77;;;;;;;12.50;95.17;101329.72;5014765;28;20558;-68
2021/12/31 03:55:12;;;;;;;16.60;11.17;;;;;;;12.45;95.32;101332.19;5032972;28;20241;-68
2021/12/31 03:57:38;;;;;;;18.00;12.23;;;;;;;12.43;95.80;101331.31;5032517;28;20554;-68
2021/12/31 04:00:08;;;;;;;13.07;11.33;;;;;;;12.40;95.75;101331.22;5032146;28;20214;-68
2021/12/31 04:02:35;;;;;;;19.40;12.07;;;;;;;12.40;95.81;101326.09;5032478;28;20187;-68
2021/12/31 04:05:01;;;;;;;16.47;11.33;;;;;;;12.39;95.84;101329.50;5032226;28;20307;-68
2021/12/31 04:07:26;;;;;;;20.43;11.70;;;;;;;12.40;95.61;101331.22;5014392;28;20302;-68
2021/12/31 04:09:51;;;;;;;15.23;11.07;;;;;;;12.40;95.90;101326.09;5036998;28;20204;-68
2021/12/31 04:12:17;;;;;;;15.43;12.17;;;;;;;12.38;96.04;101332.03;5051495;28;20193;-68
2021/12/31 04:14:42;;;;;;;18.47;12.30;;;;;;;12.31;96.36;101336.19;5052126;28;20202;-68
2021/12/31 04:17:08;;;;;;;17.33;12.07;;;;;;;12.30;96.33;101333.59;5052094;28;20216;-68
2021/12/31 04:19:33;;;;;;;15.03;11.87;;;;;;;12.30;96.65;101331.03;5050356;28;20225;-68
2021/12/31 04:21:59;;;;;;;15.90;11.50;;;;;;;12.27;96.31;101329.28;5050672;28;20186;-68
2021/12/31 04:24:40;;;;;;;13.57;10.73;;;;;;;12.31;96.40;101338.75;5051744;28;20210;-68
2021/12/31 04:27:06;;;;;;;16.30;10.10;;;;;;;12.31;96.18;101332.75;5051829;28;20219;-68
2021/12/31 04:29:31;;;;;;;17.50;10.00;;;;;;;12.32;96.29;101339.63;5035751;28;20281;-69
2021/12/31 04:31:56;;;;;;;14.17;8.93;;;;;;;12.35;96.10;101332.00;5030459;28;20240;-68
2021/12/31 04:34:22;;;;;;;14.70;9.50;;;;;;;12.35;96.01;101335.41;5031602;28;20178;-68
2021/12/31 04:36:47;;;;;;;11.50;9.17;;;;;;;12.34;95.46;101335.38;5029676;28;20271;-68
2021/12/31 04:39:13;;;;;;;18.60;8.43;;;;;;;12.34;95.85;101322.53;5031675;28;20209;-68
2021/12/31 04:41:38;;;;;;;14.07;7.47;;;;;;;12.34;95.30;101327.66;5031691;28;20183;-68
2021/12/31 04:44:04;;;;;;;12.63;7.00;;;;;;;12.38;94.90;101332.91;5031712;28;20193;-68
2021/12/31 04:46:29;;;;;;;13.37;7.90;;;;;;;12.41;94.90;101330.41;5032170;28;20305;-68
2021/12/31 04:48:55;;;;;;;11.50;5.90;;;;;;;12.48;94.15;101331.38;5031585;28;20221;-68
2021/12/31 04:51:20;;;;;;;12.37;5.73;;;;;;;12.45;94.23;101328.78;5035999;28;20193;-68
2021/12/31 04:53:45;;;;;;;9.07;6.00;;;;;;;12.45;93.92;101321.91;5047961;28;20224;-68
2021/12/31 04:56:10;;;;;;;8.97;5.30;;;;;;;12.47;93.55;101334.78;5040160;28;20210;-68
2021/12/31 04:58:36;;;;;;;11.17;5.07;;;;;;;12.42;93.84;101332.16;5043767;28;20194;-69
2021/12/31 05:01:01;;;;;;;12.13;5.17;;;;;;;12.47;93.51;101335.66;5043923;28;20205;-68
2021/12/31 05:03:26;;;;;;;9.57;4.27;;;;;;;12.52;93.50;101328.91;5040794;28;20197;-68
2021/12/31 05:05:52;;;;;;;12.30;4.80;;;;;;;12.53;93.59;101319.50;5026479;28;20267;-68
2021/12/31 05:08:19;;;;;;;8.37;4.40;;;;;;;12.47;93.07;101321.94;5038265;28;20240;-68
2021/12/31 05:10:44;;;;;;;11.00;4.43;;;;;;;12.47;93.50;101324.50;5033345;28;20194;-68
2021/12/31 05:13:14;;;;;;;9.63;4.97;;;;;;;12.45;93.92;101332.19;5047434;28;20569;-68
2021/12/31 05:15:45;;;;;;;14.60;5.20;;;;;;;12.42;94.47;101332.16;5050194;28;20202;-69
2021/12/31 05:18:10;;;;;;;9.33;5.27;;;;;;;12.40;94.23;101332.94;5033316;28;20183;-69
2021/12/31 05:20:35;;;;;;;12.57;5.13;;;;;;;12.42;93.72;101329.56;5041433;28;20692;-68
2021/12/31 05:23:01;;;;;;;9.87;5.10;;;;;;;12.46;93.55;101333.06;5048648;28;20190;-68
2021/12/31 05:25:26;;;;;;;9.20;5.27;;;;;;;12.44;93.47;101327.88;5050511;28;20275;-68
2021/12/31 05:27:52;;;;;;;14.43;5.60;;;;;;;12.50;93.32;101325.44;5042034;28;20585;-68
2021/12/31 05:30:18;;;;;;;16.80;5.73;;;;;;;12.51;93.18;101319.47;5050699;28;20180;-68
2021/12/31 05:32:45;;;;;;;12.20;5.23;;;;;;;12.53;92.84;101309.25;5042671;28;20208;-68
2021/12/31 05:35:10;;;;;;;11.07;5.40;;;;;;;12.56;93.00;101305.03;5050140;28;20193;-68
2021/12/31 05:37:36;;;;;;;10.43;5.07;;;;;;;12.56;92.58;101299.88;5032571;28;20189;-68
2021/12/31 05:40:02;;;;;;;10.37;5.83;;;;;;;12.54;92.63;101293.81;5045443;28;20208;-68
2021/12/31 05:42:28;;;;;;;10.50;6.07;;;;;;;12.52;92.85;101294.63;5039965;28;20581;-68
2021/12/31 05:44:53;;;;;;;14.50;6.00;;;;;;;12.48;93.39;101300.56;5044872;28;20213;-68
2021/12/31 05:47:18;;;;;;;12.20;5.57;;;;;;;12.53;93.05;101297.25;5037369;28;20287;-68
2021/12/31 05:49:45;;;;;;;11.47;5.83;;;;;;;12.48;93.05;101306.56;5035424;28;20197;-68
2021/12/31 05:52:11;;;;;;;12.83;5.80;;;;;;;12.50;93.01;101310.03;5016509;28;20213;-68
2021/12/31 05:54:36;;;;;;;8.30;5.63;;;;;;;12.50;93.02;101314.31;5046762;28;20211;-68
2021/12/31 05:57:01;;;;;;;12.97;5.30;;;;;;;12.48;93.25;101305.69;5043700;28;20200;-68
2021/12/31 05:59:27;;;;;;;9.73;5.53;;;;;;;12.52;93.18;101304.91;5048813;28;20173;-68
2021/12/31 06:01:52;;;;;;;9.77;5.53;;;;;;;12.49;93.72;101312.59;5037465;28;20683;-68
2021/12/31 06:04:17;;;;;;;7.90;5.77;;;;;;;12.48;93.17;101318.53;5049697;28;20662;-68
2021/12/31 06:06:43;;;;;;;9.83;5.87;;;;;;;12.55;92.71;101304.97;5043330;28;20196;-68
2021/12/31 06:09:11;;;;;;;11.43;5.80;;;;;;;12.55;92.76;101312.69;5036957;28;20209;-68
2021/12/31 06:11:36;;;;;;;11.10;5.47;;;;;;;12.53;92.97;101317.78;5039246;28;20677;-68
2021/12/31 06:14:04;;;;;;;10.03;5.90;;;;;;;12.49;93.16;101315.16;5047958;28;20182;-68
2021/12/31 06:16:35;;;;;;;10.93;5.90;;;;;;;12.51;93.10;101321.16;5041159;28;20678;-68
2021/12/31 06:19:05;;;;;;;11.50;6.90;;;;;;;12.54;93.09;101316.94;5018975;28;20726;-68
2021/12/31 06:21:35;;;;;;;8.77;6.93;;;;;;;12.56;92.99;101311.84;5018801;28;20190;-69
2021/12/31 06:24:01;;;;;;;9.93;7.30;;;;;;;12.54;93.14;101310.97;5039044;28;20220;-68
2021/12/31 06:26:26;;;;;;;11.80;7.53;;;;;;;12.51;93.27;101298.06;5037062;28;20237;-68
2021/12/31 06:28:52;;;;;;;11.23;8.17;;;;;;;12.51;93.56;101300.63;5043079;28;20617;-68
2021/12/31 06:31:17;;;;;;;10.03;8.53;;;;;;;12.62;93.10;101297.41;5041750;28;20178;-68
2021/12/31 06:33:42;;;;;;;12.40;8.83;;;;;;;12.63;93.13;101286.28;5047623;28;20201;-68
2021/12/31 06:36:08;;;;;;;12.93;8.90;;;;;;;12.64;93.01;101282.91;5035174;28;20252;-68
2021/12/31 06:38:33;;;;;;;10.70;9.07;;;;;;;12.59;93.09;101286.22;5041446;28;20181;-68
2021/12/31 06:40:58;;;;;;;10.33;9.30;;;;;;;12.60;93.21;101296.53;5042743;28;20202;-68
2021/12/31 06:43:24;;;;;;;12.77;9.83;;;;;;;12.62;92.77;101276.84;5044716;28;20642;-68
2021/12/31 06:45:49;;;;;;;12.83;9.97;;;;;;;12.65;92.69;101279.50;5046464;28;20315;-68
2021/12/31 06:48:14;;;;;;;11.17;9.33;;;;;;;12.62;93.29;101275.97;5034458;28;20321;-68
2021/12/31 06:50:40;;;;;;;11.60;9.70;;;;;;;12.63;92.84;101272.59;5042621;28;20285;-68
2021/12/31 06:53:05;;;;;;;11.67;9.73;;;;;;;12.61;93.01;101272.56;5034548;28;20221;-68
2021/12/31 06:55:32;;;;;;;10.40;9.33;;;;;;;12.60;93.20;101273.41;5044210;28;20252;-68
2021/12/31 06:57:57;;;;;;;14.13;10.23;;;;;;;12.58;93.57;101277.63;5037811;28;21878;-68
2021/12/31 07:00:23;;;;;;;12.23;10.40;;;;;;;12.64;92.97;101271.75;5038128;28;20213;-68
2021/12/31 07:02:49;;;;;;;11.70;10.57;;;;;;;12.61;93.44;101263.97;5046495;28;20205;-68
2021/12/31 07:05:14;;;;;;;12.03;10.57;;;;;;;12.67;92.91;101264.97;5050475;28;20201;-68
2021/12/31 07:07:40;;;;;;;12.17;10.00;;;;;;;12.74;92.17;101260.78;5049842;28;20694;-68
2021/12/31 07:10:06;;;;;;;11.37;10.13;;;;;;;12.73;92.46;101264.22;5051219;28;20604;-68
2021/12/31 07:12:32;;;;;;;12.27;9.60;;;;;;;12.71;91.99;101256.47;5050852;28;20228;-68
2021/12/31 07:14:57;;;;;;;11.90;8.83;;;;;;;12.72;92.09;101263.31;5052978;28;20237;-68
2021/12/31 07:17:23;;;;;;;11.07;8.93;;;;;;;12.68;92.51;101263.25;5051414;28;20178;-69
2021/12/31 07:19:48;;;;;;;10.23;9.13;;;;;;;12.69;91.99;101263.28;5049306;28;20208;-68
2021/12/31 07:22:13;;;;;;;11.10;9.13;;;;;;;12.72;91.84;101270.19;5050995;28;20189;-68
2021/12/31 07:24:39;;;;;;;9.77;8.83;;;;;;;12.78;91.29;101268.59;5052479;28;20206;-68
2021/12/31 07:27:04;;;;;;;8.77;7.87;;;;;;;12.84;91.32;101273.84;5048279;28;20212;-68
2021/12/31 07:29:29;;;;;;;10.13;8.07;;;;;;;12.79;90.99;101280.59;5050666;28;20193;-68
2021/12/31 07:31:54;;;;;;;10.47;8.00;;;;;;;12.84;91.13;101280.66;5052156;28;20196;-69
2021/12/31 07:34:20;;;;;;;9.80;7.93;;;;;;;12.80;91.08;101279.75;5050558;28;20193;-68
2021/12/31 07:36:45;;;;;;;13.20;7.37;;;;;;;12.85;90.74;101272.09;5051647;28;20189;-68
2021/12/31 07:39:13;;;;;;;10.13;7.83;;;;;;;12.84;90.85;101281.53;5048698;28;20193;-68
2021/12/31 07:41:38;;;;;;;9.17;7.77;;;;;;;12.80;91.27;101286.59;5032834;28;20206;-68
2021/12/31 07:44:06;;;;;;;9.37;7.43;;;;;;;12.86;90.96;101276.44;5032560;28;20259;-68
2021/12/31 07:46:31;;;;;;;11.20;7.30;;;;;;;12.82;91.07;101284.94;5032668;28;20288;-68
2021/12/31 07:48:57;;;;;;;8.77;7.33;;;;;;;12.80;91.26;101278.88;5014572;28;20694;-69
2021/12/31 07:51:22;;;;;;;9.80;6.90;;;;;;;12.83;91.12;101279.81;5034605;28;20526;-68
2021/12/31 07:53:47;;;;;;;11.03;7.57;;;;;;;12.82;91.31;101292.63;5034124;28;20683;-68
2021/12/31 07:56:14;;;;;;;8.17;6.77;;;;;;;12.80;91.08;101284.91;5032544;28;20217;-68
2021/12/31 07:58:39;;;;;;;10.37;6.97;;;;;;;12.85;90.82;101295.25;5032327;28;20174;-68
2021/12/31 08:01:05;;;;;;;10.00;7.37;;;;;;;12.84;90.86;101291.81;5032466;28;20194;-68
2021/12/31 08:03:31;;;;;;;8.37;7.50;;;;;;;12.84;91.07;101290.94;5032446;28;20190;-69
2021/12/31 08:05:56;;;;;;;8.50;6.80;;;;;;;12.85;90.77;101288.41;5032306;28;20210;-69
2021/12/31 08:08:21;;;;;;;8.77;6.93;;;;;;;12.85;90.38;101275.56;5031979;28;20224;-68
2021/12/31 08:10:47;;;;;;;10.13;6.63;;;;;;;12.98;90.31;101292.06;5032062;28;20194;-68
2021/12/31 08:13:13;;;;;;;7.00;6.30;;;;;;;12.93;90.03;101287.69;5031544;28;20237;-68
2021/12/31 08:15:38;;;;;;;8.97;6.33;;;;;;;12.94;90.40;101282.53;5030715;28;20289;-68
2021/12/31 08:18:04;;;;;;;8.57;6.80;;;;;;;12.88;90.60;101285.91;5031934;28;20542;-68
2021/12/31 08:20:29;;;;;;;8.07;6.50;;;;;;;12.91;90.68;101288.50;5031913;28;20243;-68
2021/12/31 08:22:55;;;;;;;8.97;6.77;;;;;;;12.93;90.11;101274.84;5031993;28;20217;-68
2021/12/31 08:25:20;;;;;;;8.30;6.77;;;;;;;12.98;89.81;101280.94;5031723;28;20213;-68
2021/12/31 08:27:46;;;;;;;9.47;6.60;;;;;;;12.99;90.22;101282.66;5034901;28;20285;-68
2021/12/31 08:30:12;;;;;;;7.07;6.37;;;;;;;12.98;89.80;101283.53;5051448;28;20185;-68
2021/12/31 08:32:37;;;;;;;7.73;6.43;;;;;;;12.95;90.07;101282.56;5048267;28;20196;-69
2021/12/31 08:35:04;;;;;;;8.80;6.47;;;;;;;13.01;90.17;101286.13;5045728;28;20279;-68
2021/12/31 08:37:29;;;;;;;8.20;6.13;;;;;;;12.96;90.39;101280.88;5051610;28;20182;-68
2021/12/31 08:39:54;;;;;;;10.40;6.20;;;;;;;12.94;90.06;101285.13;5051202;28;20552;-68
2021/12/31 08:42:20;;;;;;;7.47;6.27;;;;;;;12.99;89.96;101285.25;5051470;28;20564;-68
2021/12/31 08:44:45;;;;;;;8.13;6.33;;;;;;;13.01;90.14;101288.69;5050564;28;20633;-68
2021/12/31 08:47:10;;;;;;;11.30;6.20;;;;;;;12.99;90.11;101283.56;5051231;28;20240;-68
2021/12/31 08:49:36;;;;;;;6.97;6.13;;;;;;;13.00;89.91;101266.41;5026603;28;20779;-68
2021/12/31 08:52:02;;;;;;;7.97;5.57;;;;;;;12.99;89.96;101273.28;5041746;28;20256;-68
2021/12/31 08:54:28;;;;;;;9.20;6.50;;;;;;;13.03;89.67;101266.47;5050880;28;20650;-70
2021/12/31 08:56:53;;;;;;;6.80;5.37;;;;;;;13.03;89.22;101269.03;5046784;28;20190;-69
2021/12/31 08:59:19;;;;;;;11.10;5.57;;;;;;;13.02;89.61;101255.31;5031021;28;20197;-68
2021/12/31 09:01:45;;;;;;;6.83;6.07;;;;;;;13.02;89.29;101275.88;5048037;28;20200;-68
2021/12/31 09:04:11;;;;;;;11.13;5.63;;;;;;;13.02;89.41;101275.88;5031353;28;20225;-69
2021/12/31 09:06:36;;;;;;;6.27;5.60;;;;;;;13.02;89.63;101272.44;5032815;28;20319;-69
2021/12/31 09:09:03;;;;;;;8.73;5.50;;;;;;;13.01;89.54;101276.72;5046255;28;20237;-68
2021/12/31 09:11:28;;;;;;;5.80;5.17;;;;;;;13.07;89.17;101275.97;5040611;28;20700;-69
2021/12/31 09:13:55;;;;;;;6.10;5.17;;;;;;;13.10;89.14;101278.56;5050720;28;20186;-69
2021/12/31 09:16:20;;;;;;;6.97;4.70;;;;;;;13.05;89.02;101293.06;5050835;28;20671;-69
2021/12/31 09:18:46;;;;;;;5.00;4.50;;;;;;;13.13;88.48;101287.22;5032415;28;20186;-69
2021/12/31 09:21:12;;;;;;;6.60;4.70;;;;;;;13.11;89.02;101280.31;5050377;28;20206;-69
2021/12/31 09:23:37;;;;;;;8.10;4.93;;;;;;;13.17;88.03;101283.81;5049976;28;20186;-69
2021/12/31 09:26:03;;;;;;;6.20;4.87;;;;;;;13.14;88.25;101283.78;5050179;28;20247;-68
2021/12/31 09:28:28;;;;;;;6.37;4.33;;;;;;;13.15;89.05;101287.22;5050067;28;20216;-68
2021/12/31 09:30:53;;;;;;;4.13;3.73;;;;;;;13.21;87.67;101289.91;5050513;28;20185;-68
2021/12/31 09:33:18;;;;;;;5.83;4.07;;;;;;;13.26;87.46;101294.25;5030876;28;20194;-69
2021/12/31 09:35:44;;;;;;;4.27;3.60;;;;;;;13.28;87.20;101287.44;5046175;28;20229;-69
2021/12/31 09:38:09;;;;;;;6.47;3.63;;;;;;;13.30;86.87;101295.19;5049454;28;20181;-69
2021/12/31 09:40:39;;;;;;;7.37;4.50;;;;;;;13.25;87.72;101294.25;5049373;28;20212;-69
2021/12/31 09:43:08;;;;;;;6.17;4.00;;;;;;;13.23;87.34;101283.06;5049560;28;20193;-69
2021/12/31 09:45:38;;;;;;;4.73;3.50;;;;;;;13.30;86.65;101292.63;5049178;28;20779;-68
2021/12/31 09:48:12;;;;;;;4.60;3.80;;;;;;;13.33;86.99;101285.81;5047845;28;20264;-69
2021/12/31 09:50:43;;;;;;;7.07;3.87;;;;;;;13.29;87.02;101301.16;5049189;28;20217;-68
2021/12/31 09:53:13;;;;;;;6.67;3.93;;;;;;;13.32;87.35;101293.50;5042935;28;20693;-68
2021/12/31 09:55:44;;;;;;;4.03;3.50;;;;;;;13.35;87.00;101291.81;5049260;28;20698;-69
2021/12/31 09:58:11;;;;;;;4.73;3.70;;;;;;;13.41;85.90;101306.50;5049179;28;20220;-68
2021/12/31 10:00:41;;;;;;;5.33;3.77;;;;;;;13.40;86.53;101312.50;5048112;28;20182;-69
2021/12/31 10:03:15;;;;;;;5.23;3.80;;;;;;;13.40;86.20;101305.63;5049228;28;20229;-68
2021/12/31 10:05:51;;;;;;;4.00;3.20;;;;;;;13.43;85.31;101299.66;5048919;28;20232;-68
2021/12/31 10:08:23;;;;;;;6.23;3.40;;;;;;;13.44;85.96;101304.81;5043194;28;20272;-68
2021/12/31 10:11:07;;;;;;;7.80;3.83;;;;;;;13.46;85.48;101302.28;5031237;28;20721;-69
2021/12/31 10:13:34;;;;;;;6.73;3.77;;;;;;;13.51;84.83;101298.06;5049179;28;20545;-69
2021/12/31 10:16:00;;;;;;;5.23;3.40;;;;;;;13.51;85.21;101296.38;5048745;28;20206;-68
2021/12/31 10:18:36;;;;;;;5.30;3.80;;;;;;;13.56;84.54;101291.28;5049090;28;20554;-68
2021/12/31 10:21:04;;;;;;;4.93;3.33;;;;;;;13.60;84.32;101287.91;5031177;28;20196;-68
2021/12/31 10:23:29;;;;;;;4.80;3.63;;;;;;;13.69;84.13;101291.50;5047842;28;20182;-68
2021/12/31 10:26:11;;;;;;;5.50;3.40;;;;;;;13.75;83.86;101298.41;5044375;28;20221;-70
2021/12/31 10:28:50;;;;;;;6.23;3.10;;;;;;;13.76;84.19;101295.88;5030929;28;20218;-69
2021/12/31 10:31:15;;;;;;;6.10;3.40;;;;;;;13.79;83.13;101277.91;5048765;28;20272;-70
2021/12/31 10:33:43;;;;;;;4.30;3.50;;;;;;;13.84;82.70;101283.09;5048722;28;20210;-70
2021/12/31 10:36:08;;;;;;;5.77;3.37;;;;;;;13.79;83.30;101289.88;5048354;28;20236;-70
2021/12/31 10:38:39;;;;;;;6.27;3.40;;;;;;;13.78;82.72;101295.88;5048506;28;20302;-70
2021/12/31 10:41:05;;;;;;;4.63;3.07;;;;;;;13.74;83.45;101289.84;5047453;28;20235;-70
2021/12/31 10:43:30;;;;;;;5.27;3.53;;;;;;;13.72;82.81;101290.66;5047909;28;20284;-70
2021/12/31 10:46:07;;;;;;;4.67;3.23;;;;;;;13.68;83.37;101287.16;5048442;28;20226;-69
2021/12/31 10:48:42;;;;;;;7.83;3.37;;;;;;;13.60;83.40;101290.47;5048070;28;20271;-69
2021/12/31 10:51:10;;;;;;;5.83;3.53;;;;;;;13.58;83.46;101293.03;5048708;28;20193;-69
2021/12/31 10:53:37;;;;;;;9.33;3.70;;;;;;;13.59;83.79;101297.34;5046795;28;20654;-69
2021/12/31 10:56:09;;;;;;;5.53;3.87;;;;;;;13.60;83.45;101288.78;5048389;28;20710;-69
2021/12/31 10:58:36;;;;;;;5.40;3.80;;;;;;;13.60;83.19;101293.06;5048014;28;20784;-68
2021/12/31 11:01:05;;;;;;;4.83;3.37;;;;;;;13.66;83.18;101285.41;5048357;28;20242;-68
2021/12/31 11:03:33;;;;;;;5.03;3.60;;;;;;;13.68;82.84;101296.63;5048559;28;20220;-68
2021/12/31 11:05:59;;;;;;;4.03;3.30;;;;;;;13.67;83.37;101294.88;5048272;28;20220;-68
2021/12/31 11:08:26;;;;;;;5.50;3.40;;;;;;;13.66;83.26;101291.44;5048225;28;20260;-68
2021/12/31 11:10:52;;;;;;;6.30;3.83;;;;;;;13.66;82.56;101299.16;5030480;28;20647;-69
2021/12/31 11:13:21;;;;;;;5.80;3.60;;;;;;;13.62;83.05;101299.09;5048521;28;20186;-69
2021/12/31 11:15:50;;;;;;;6.43;3.70;;;;;;;13.59;82.78;101297.34;5046703;28;20202;-68
2021/12/31 11:18:22;;;;;;;4.80;3.67;;;;;;;13.57;83.35;101291.31;5028437;28;20191;-69